Time;durP1;ratioP1;P1;durP2;ratioP2;P2;SDS_P1;SDS_P2;PMS_P1;PMS_P2;Temp;Humidity;BMP_temperature;BMP_pressure;BME280_temperature;BME280_humidity;BME280_pressure;Samples;Min_cycle;Max_cycle;Signal;HPM_P1;HPM_P2
2021/08/10 00:00:06;;;;;;;4.60;2.80;;;17.60;95.20;;;;;;5074185;28;20476;-66
2021/08/10 00:02:33;;;;;;;3.63;3.00;;;17.50;95.10;;;;;;5074959;28;20433;-66
2021/08/10 00:05:00;;;;;;;6.70;2.87;;;17.50;95.20;;;;;;5074400;28;20440;-68
2021/08/10 00:07:27;;;;;;;5.27;3.40;;;17.40;95.30;;;;;;5074726;28;20444;-69
2021/08/10 00:09:54;;;;;;;9.30;2.60;;;17.40;95.20;;;;;;5074236;28;20436;-69
2021/08/10 00:12:22;;;;;;;7.27;2.80;;;17.30;95.80;;;;;;5074187;28;20774;-69
2021/08/10 00:14:51;;;;;;;4.40;2.80;;;17.30;95.90;;;;;;5074606;28;20447;-68
2021/08/10 00:17:18;;;;;;;5.73;2.37;;;17.20;96.40;;;;;;5073248;28;20519;-69
2021/08/10 00:19:45;;;;;;;5.87;3.40;;;17.20;96.10;;;;;;5074276;28;20484;-69
2021/08/10 00:22:12;;;;;;;4.50;3.57;;;17.20;96.10;;;;;;5073703;28;20432;-68
2021/08/10 00:24:39;;;;;;;4.20;2.67;;;17.10;96.00;;;;;;5074409;28;20517;-68
2021/08/10 00:27:06;;;;;;;7.73;3.07;;;17.10;96.00;;;;;;5073244;28;20993;-69
2021/08/10 00:29:34;;;;;;;3.40;2.90;;;17.00;96.00;;;;;;5074016;28;20444;-68
2021/08/10 00:32:02;;;;;;;4.97;3.20;;;17.00;96.00;;;;;;5074060;28;20815;-69
2021/08/10 00:34:29;;;;;;;4.63;2.97;;;16.90;96.30;;;;;;5074122;28;20763;-69
2021/08/10 00:36:57;;;;;;;3.57;2.70;;;16.90;96.30;;;;;;5073656;28;20938;-68
2021/08/10 00:39:24;;;;;;;4.07;2.80;;;16.90;96.30;;;;;;5073989;28;20484;-69
2021/08/10 00:41:51;;;;;;;4.67;3.13;;;16.90;96.00;;;;;;5073557;28;20432;-68
2021/08/10 00:44:18;;;;;;;4.70;3.10;;;16.90;96.00;;;;;;5073338;28;20440;-68
2021/08/10 00:46:45;;;;;;;4.03;2.60;;;16.90;95.80;;;;;;5073579;28;20490;-68
2021/08/10 00:49:14;;;;;;;5.13;2.60;;;16.80;95.60;;;;;;5073225;28;20432;-68
2021/08/10 00:51:41;;;;;;;3.90;2.83;;;16.80;95.40;;;;;;5073843;28;20462;-68
2021/08/10 00:54:09;;;;;;;8.70;2.13;;;16.70;95.20;;;;;;5073229;28;20436;-69
2021/08/10 00:56:37;;;;;;;3.63;2.30;;;16.60;95.30;;;;;;5073604;28;20440;-69
2021/08/10 00:59:04;;;;;;;4.20;2.60;;;16.60;95.20;;;;;;5073410;28;20483;-70
2021/08/10 01:01:31;;;;;;;4.17;2.43;;;16.60;95.20;;;;;;5073036;28;20444;-69
2021/08/10 01:03:58;;;;;;;5.60;1.93;;;16.50;95.10;;;;;;5073398;28;20436;-68
2021/08/10 01:06:34;;;;;;;3.70;2.47;;;16.50;95.00;;;;;;5073515;28;20520;-70
2021/08/10 01:09:07;;;;;;;3.50;2.67;;;16.40;95.10;;;;;;5073204;28;20440;-68
2021/08/10 01:11:41;;;;;;;3.20;2.53;;;16.30;95.30;;;;;;5073310;28;20438;-69
2021/08/10 01:14:17;;;;;;;3.47;2.90;;;16.20;95.00;;;;;;5073013;28;20489;-68
2021/08/10 01:16:51;;;;;;;5.20;2.57;;;16.10;95.10;;;;;;5072951;28;20428;-68
2021/08/10 01:19:48;;;;;;;4.20;2.63;;;16.00;95.60;;;;;;5072847;28;20564;-68
2021/08/10 01:22:20;;;;;;;4.80;3.30;;;16.00;95.70;;;;;;5073371;28;20498;-68
2021/08/10 01:24:53;;;;;;;6.57;3.20;;;16.00;95.80;;;;;;5073158;28;20438;-68
2021/08/10 01:27:39;;;;;;;4.30;2.80;;;15.90;95.90;;;;;;5073052;28;20900;-68
2021/08/10 01:30:14;;;;;;;5.93;2.77;;;15.90;96.00;;;;;;5072831;28;20861;-69
2021/08/10 01:32:46;;;;;;;5.87;3.07;;;15.80;96.00;;;;;;5072809;28;20428;-69
2021/08/10 01:35:14;;;;;;;3.63;2.20;;;15.70;96.10;;;;;;5072962;28;20520;-68
2021/08/10 01:37:45;;;;;;;3.80;2.10;;;15.70;96.10;;;;;;5072497;28;20439;-69
2021/08/10 01:40:14;;;;;;;4.40;2.90;;;15.70;95.80;;;;;;5072912;28;20533;-69
2021/08/10 01:42:42;;;;;;;3.30;2.70;;;15.70;95.70;;;;;;5072705;28;20436;-68
2021/08/10 01:45:11;;;;;;;4.53;2.50;;;15.70;95.80;;;;;;5072917;28;20436;-69
2021/08/10 01:47:43;;;;;;;4.07;3.37;;;15.70;95.70;;;;;;5072169;28;20444;-70
2021/08/10 01:50:12;;;;;;;4.60;2.80;;;15.70;96.10;;;;;;5072378;28;20812;-68
2021/08/10 01:52:42;;;;;;;7.43;2.43;;;15.70;96.30;;;;;;5072656;28;20948;-69
2021/08/10 01:55:11;;;;;;;3.27;2.67;;;15.70;96.60;;;;;;5072440;28;20482;-68
2021/08/10 01:57:39;;;;;;;5.97;2.63;;;15.70;96.60;;;;;;5072785;28;20436;-68
2021/08/10 02:00:08;;;;;;;4.30;2.90;;;15.70;96.50;;;;;;5071162;28;20529;-68
2021/08/10 02:02:35;;;;;;;5.97;2.10;;;15.70;96.50;;;;;;5072581;28;20440;-68
2021/08/10 02:05:03;;;;;;;3.73;2.23;;;15.70;96.30;;;;;;5072269;28;20464;-68
2021/08/10 02:07:32;;;;;;;2.77;2.07;;;15.70;96.10;;;;;;5072611;28;20444;-69
2021/08/10 02:10:01;;;;;;;4.53;2.50;;;15.70;96.10;;;;;;5072284;28;20438;-69
2021/08/10 02:12:29;;;;;;;3.87;2.47;;;15.60;96.10;;;;;;5072654;28;20443;-68
2021/08/10 02:14:58;;;;;;;4.10;2.53;;;15.60;95.80;;;;;;5072624;28;20436;-69
2021/08/10 02:17:25;;;;;;;2.90;2.00;;;15.60;95.50;;;;;;5072491;28;20538;-68
2021/08/10 02:19:52;;;;;;;3.70;2.50;;;15.60;95.60;;;;;;5071936;28;20476;-68
2021/08/10 02:22:20;;;;;;;4.50;2.73;;;15.60;95.40;;;;;;5071895;28;20838;-69
2021/08/10 02:24:54;;;;;;;7.90;2.40;;;15.50;95.50;;;;;;5072176;28;20440;-68
2021/08/10 02:27:27;;;;;;;4.80;2.23;;;15.50;95.40;;;;;;5072505;28;20792;-68
2021/08/10 02:29:56;;;;;;;6.60;3.37;;;15.40;95.10;;;;;;5071965;28;20450;-69
2021/08/10 02:32:26;;;;;;;4.60;3.30;;;15.40;95.50;;;;;;5072436;28;20440;-68
2021/08/10 02:34:54;;;;;;;4.73;3.40;;;15.30;95.60;;;;;;5072048;28;20440;-69
2021/08/10 02:37:23;;;;;;;5.27;3.20;;;15.20;95.60;;;;;;5071662;28;20436;-68
2021/08/10 02:39:53;;;;;;;4.60;3.50;;;15.20;95.80;;;;;;5072240;28;20575;-69
2021/08/10 02:42:24;;;;;;;6.30;3.37;;;15.20;95.60;;;;;;5072099;28;20437;-68
2021/08/10 02:44:53;;;;;;;6.20;3.20;;;15.10;95.60;;;;;;5072300;28;20492;-68
2021/08/10 02:47:20;;;;;;;4.20;2.70;;;15.10;95.90;;;;;;5071759;28;20436;-69
2021/08/10 02:49:47;;;;;;;5.63;3.47;;;15.10;95.90;;;;;;5072230;28;20450;-68
2021/08/10 02:52:14;;;;;;;5.50;3.50;;;15.00;96.00;;;;;;5071796;28;20472;-68
2021/08/10 02:54:42;;;;;;;5.70;3.47;;;14.90;96.20;;;;;;5071893;28;20444;-68
2021/08/10 02:57:15;;;;;;;4.00;2.70;;;14.80;96.40;;;;;;5071802;28;20515;-69
2021/08/10 02:59:48;;;;;;;6.20;2.70;;;14.80;96.60;;;;;;5072248;28;20553;-69
2021/08/10 03:02:19;;;;;;;5.50;2.77;;;14.80;97.20;;;;;;5072079;28;20472;-68
2021/08/10 03:04:51;;;;;;;4.83;3.13;;;14.90;96.90;;;;;;5072088;28;20443;-69
2021/08/10 03:07:20;;;;;;;4.60;3.03;;;14.90;96.90;;;;;;5071472;28;20467;-68
2021/08/10 03:09:50;;;;;;;3.60;2.80;;;14.90;96.80;;;;;;5071227;28;20440;-68
2021/08/10 03:12:22;;;;;;;3.70;2.90;;;15.00;96.70;;;;;;5075252;28;20443;-68
2021/08/10 03:14:51;;;;;;;3.60;2.90;;;15.00;96.80;;;;;;5075507;28;20436;-69
2021/08/10 03:17:20;;;;;;;6.33;2.50;;;15.00;96.80;;;;;;5075833;28;20827;-68
2021/08/10 03:19:49;;;;;;;7.80;3.27;;;15.00;96.60;;;;;;5074888;28;20471;-68
2021/08/10 03:22:17;;;;;;;4.03;2.70;;;15.00;96.60;;;;;;5075626;28;20494;-70
2021/08/10 03:24:46;;;;;;;4.47;2.70;;;15.00;96.50;;;;;;5074928;28;20435;-69
2021/08/10 03:27:14;;;;;;;5.10;2.77;;;15.00;96.30;;;;;;5073838;28;20537;-68
2021/08/10 03:29:43;;;;;;;5.83;2.83;;;15.00;96.30;;;;;;5074982;28;21003;-68
2021/08/10 03:32:11;;;;;;;4.30;2.50;;;15.00;96.30;;;;;;5075371;28;20915;-71
2021/08/10 03:34:38;;;;;;;3.60;2.70;;;15.00;96.30;;;;;;5074992;28;20450;-68
2021/08/10 03:37:05;;;;;;;5.40;3.13;;;15.00;96.20;;;;;;5075484;28;20797;-69
2021/08/10 03:39:34;;;;;;;4.10;3.00;;;15.00;95.70;;;;;;5075069;28;20495;-69
2021/08/10 03:42:02;;;;;;;3.70;2.30;;;14.90;95.20;;;;;;5074637;28;20438;-69
2021/08/10 03:44:29;;;;;;;3.03;2.57;;;14.80;95.20;;;;;;5075172;28;20435;-69
2021/08/10 03:46:58;;;;;;;3.53;2.80;;;14.70;95.10;;;;;;5074922;28;20983;-68
2021/08/10 03:49:26;;;;;;;5.10;2.30;;;14.60;95.60;;;;;;5075116;28;20437;-72
2021/08/10 03:51:54;;;;;;;4.07;2.50;;;14.60;95.70;;;;;;5074574;28;20503;-69
2021/08/10 03:54:21;;;;;;;3.40;2.40;;;14.60;96.10;;;;;;5074831;28;20961;-68
2021/08/10 03:56:51;;;;;;;4.60;3.20;;;14.50;95.80;;;;;;5074579;28;20432;-68
2021/08/10 03:59:20;;;;;;;3.47;2.70;;;14.50;95.80;;;;;;5074453;28;20447;-68
2021/08/10 04:01:49;;;;;;;5.63;3.60;;;14.50;96.00;;;;;;5074466;28;20849;-68
2021/08/10 04:04:19;;;;;;;4.23;3.00;;;14.50;96.10;;;;;;5074648;28;20494;-68
2021/08/10 04:06:46;;;;;;;5.40;2.73;;;14.50;96.30;;;;;;5074462;28;20439;-68
2021/08/10 04:09:15;;;;;;;4.70;2.87;;;14.50;96.30;;;;;;5074600;28;20436;-68
2021/08/10 04:11:43;;;;;;;4.10;2.77;;;14.60;96.40;;;;;;5074180;28;20436;-68
2021/08/10 04:14:10;;;;;;;4.47;2.50;;;14.60;96.70;;;;;;5074312;28;20494;-68
2021/08/10 04:16:47;;;;;;;5.10;2.90;;;14.60;96.30;;;;;;5074596;28;20828;-68
2021/08/10 04:19:19;;;;;;;4.43;3.17;;;14.60;96.30;;;;;;5074141;28;20444;-68
2021/08/10 04:21:46;;;;;;;3.20;2.10;;;14.60;96.20;;;;;;5073671;28;20887;-68
2021/08/10 04:24:14;;;;;;;2.93;2.30;;;14.60;96.20;;;;;;5073613;28;20428;-68
2021/08/10 04:26:41;;;;;;;4.13;3.20;;;14.60;96.10;;;;;;5074209;28;20989;-69
2021/08/10 04:29:28;;;;;;;6.00;2.70;;;14.60;95.80;;;;;;5074014;28;20490;-68
2021/08/10 04:31:55;;;;;;;5.90;2.60;;;14.60;95.90;;;;;;5073580;28;20440;-69
2021/08/10 04:34:24;;;;;;;6.10;3.40;;;14.60;95.90;;;;;;5073931;28;20432;-68
2021/08/10 04:36:51;;;;;;;3.10;2.53;;;14.50;95.80;;;;;;5070732;28;20460;-69
2021/08/10 04:39:18;;;;;;;3.97;2.80;;;14.50;95.90;;;;;;5072148;28;20443;-68
2021/08/10 04:41:45;;;;;;;4.17;2.80;;;14.50;95.80;;;;;;5072428;28;20767;-70
2021/08/10 04:44:13;;;;;;;3.30;2.23;;;14.50;95.90;;;;;;5072527;28;20498;-68
2021/08/10 04:46:40;;;;;;;4.30;2.63;;;14.50;95.90;;;;;;5071878;28;20436;-69
2021/08/10 04:49:07;;;;;;;7.57;3.33;;;14.50;95.80;;;;;;5072156;28;20863;-68
2021/08/10 04:51:36;;;;;;;3.87;2.90;;;14.50;95.90;;;;;;5072118;28;20525;-69
2021/08/10 04:54:03;;;;;;;3.20;2.30;;;14.40;96.10;;;;;;5072442;28;20440;-68
2021/08/10 04:56:30;;;;;;;9.20;2.67;;;14.50;96.30;;;;;;5071260;28;20436;-69
2021/08/10 04:58:57;;;;;;;7.40;3.53;;;14.50;96.40;;;;;;5071813;28;20436;-68
2021/08/10 05:01:24;;;;;;;6.00;2.83;;;14.50;96.60;;;;;;5072046;28;20483;-69
2021/08/10 05:03:51;;;;;;;4.70;3.57;;;14.50;96.90;;;;;;5071973;28;20478;-69
2021/08/10 05:06:18;;;;;;;4.77;3.10;;;14.50;96.80;;;;;;5071295;28;20436;-68
2021/08/10 05:08:47;;;;;;;4.60;3.17;;;14.60;97.00;;;;;;5071841;28;20523;-69
2021/08/10 05:11:14;;;;;;;5.20;2.97;;;14.70;97.00;;;;;;5071229;28;20444;-69
2021/08/10 05:13:42;;;;;;;4.20;3.13;;;14.70;97.20;;;;;;5071969;28;20535;-68
2021/08/10 05:16:10;;;;;;;8.03;3.87;;;14.80;97.40;;;;;;5071045;28;20447;-69
2021/08/10 05:18:37;;;;;;;5.23;3.47;;;14.80;97.00;;;;;;5071686;28;20443;-68
2021/08/10 05:21:04;;;;;;;4.60;3.43;;;14.90;97.20;;;;;;5071398;28;20479;-68
2021/08/10 05:23:34;;;;;;;5.20;3.57;;;14.90;97.20;;;;;;5069070;28;20481;-69
2021/08/10 05:26:03;;;;;;;5.73;3.67;;;15.00;97.20;;;;;;5066528;28;20501;-68
2021/08/10 05:28:30;;;;;;;4.43;2.70;;;15.10;97.00;;;;;;5071129;28;20447;-69
2021/08/10 05:30:58;;;;;;;4.53;2.60;;;15.10;97.30;;;;;;5071255;28;20451;-69
2021/08/10 05:33:25;;;;;;;5.57;3.77;;;15.20;97.20;;;;;;5070645;28;20490;-69
2021/08/10 05:35:52;;;;;;;7.03;4.00;;;15.40;97.20;;;;;;5067307;28;21519;-68
2021/08/10 05:38:19;;;;;;;5.30;3.20;;;15.40;97.20;;;;;;5071480;28;20512;-69
2021/08/10 05:40:46;;;;;;;5.63;3.57;;;15.50;97.20;;;;;;5071097;28;20553;-68
2021/08/10 05:43:15;;;;;;;7.53;3.37;;;15.60;97.40;;;;;;5071059;28;20979;-69
2021/08/10 05:45:42;;;;;;;6.97;3.93;;;15.80;97.50;;;;;;5067522;28;20466;-68
2021/08/10 05:48:11;;;;;;;4.60;3.27;;;15.80;97.10;;;;;;5070096;28;20995;-69
2021/08/10 05:50:39;;;;;;;9.00;3.70;;;15.90;96.70;;;;;;5069265;28;20448;-73
2021/08/10 05:53:06;;;;;;;5.30;3.40;;;16.00;96.10;;;;;;5068826;28;20428;-69
2021/08/10 05:55:33;;;;;;;6.33;3.63;;;16.00;95.80;;;;;;5070443;28;20444;-68
2021/08/10 05:58:00;;;;;;;5.10;3.17;;;16.00;95.90;;;;;;5065994;28;20424;-67
2021/08/10 06:00:28;;;;;;;5.47;3.70;;;16.10;96.20;;;;;;5069231;28;20486;-67
2021/08/10 06:02:55;;;;;;;5.17;3.23;;;16.20;96.20;;;;;;5069466;28;20519;-67
2021/08/10 06:05:22;;;;;;;7.53;3.10;;;16.20;95.50;;;;;;5069847;28;20547;-67
2021/08/10 06:07:54;;;;;;;4.40;2.80;;;16.30;95.30;;;;;;5069270;28;20440;-68
2021/08/10 06:10:21;;;;;;;5.80;3.30;;;16.30;95.30;;;;;;5068510;28;21009;-67
2021/08/10 06:12:48;;;;;;;7.20;3.00;;;16.40;95.10;;;;;;5070595;28;20448;-67
2021/08/10 06:15:14;;;;;;;4.10;2.97;;;16.40;94.90;;;;;;5068245;28;20446;-67
2021/08/10 06:17:44;;;;;;;5.67;3.37;;;16.50;95.00;;;;;;5067413;28;20504;-70
2021/08/10 06:20:12;;;;;;;4.43;3.27;;;16.70;95.20;;;;;;5070558;28;20435;-67
2021/08/10 06:22:39;;;;;;;6.70;3.40;;;16.70;94.70;;;;;;5067614;28;20543;-67
2021/08/10 06:25:06;;;;;;;4.50;3.13;;;16.90;94.90;;;;;;5069351;28;20444;-68
2021/08/10 06:27:33;;;;;;;4.63;2.87;;;17.00;94.70;;;;;;5069277;28;20517;-69
2021/08/10 06:30:01;;;;;;;6.97;3.23;;;17.10;94.60;;;;;;5069268;28;20525;-73
2021/08/10 06:32:28;;;;;;;7.53;3.63;;;17.20;94.80;;;;;;5070983;28;20432;-68
2021/08/10 06:34:56;;;;;;;4.50;3.13;;;17.40;94.50;;;;;;5071158;28;21005;-67
2021/08/10 06:37:28;;;;;;;4.10;3.17;;;17.60;94.50;;;;;;5071470;28;20479;-67
2021/08/10 06:39:55;;;;;;;4.30;2.63;;;17.70;93.80;;;;;;5070752;28;20526;-67
2021/08/10 06:42:23;;;;;;;4.40;2.40;;;17.90;92.40;;;;;;5071713;28;20574;-67
2021/08/10 06:44:50;;;;;;;4.73;3.20;;;18.00;93.00;;;;;;5071506;28;20530;-67
2021/08/10 06:47:17;;;;;;;5.73;3.27;;;18.20;93.10;;;;;;5075085;28;20942;-67
2021/08/10 06:49:44;;;;;;;3.83;2.77;;;18.30;92.80;;;;;;5074818;28;20953;-68
2021/08/10 06:52:13;;;;;;;4.77;3.53;;;18.40;92.60;;;;;;5075447;28;20528;-67
2021/08/10 06:54:40;;;;;;;10.07;4.63;;;18.50;92.50;;;;;;5074239;28;20518;-67
2021/08/10 06:57:07;;;;;;;4.07;2.70;;;18.60;91.90;;;;;;5073851;28;20448;-69
2021/08/10 06:59:36;;;;;;;6.30;3.10;;;18.70;91.70;;;;;;5075063;28;20443;-67
2021/08/10 07:02:03;;;;;;;4.03;2.43;;;18.80;92.30;;;;;;5074927;28;20981;-68
2021/08/10 07:04:30;;;;;;;5.97;3.10;;;18.90;92.10;;;;;;5075385;28;20504;-68
2021/08/10 07:06:57;;;;;;;4.30;3.50;;;19.00;91.70;;;;;;5075302;28;20522;-67
2021/08/10 07:09:25;;;;;;;5.20;2.97;;;19.20;91.80;;;;;;5074646;28;20483;-67
2021/08/10 07:11:52;;;;;;;5.80;3.00;;;19.30;91.30;;;;;;5075221;28;20522;-67
2021/08/10 07:14:20;;;;;;;5.47;3.23;;;19.40;91.10;;;;;;5075084;28;20958;-67
2021/08/10 07:16:47;;;;;;;5.33;3.37;;;19.60;91.30;;;;;;5074944;28;20526;-67
2021/08/10 07:19:14;;;;;;;5.47;3.03;;;19.70;91.20;;;;;;5074627;28;20926;-67
2021/08/10 07:21:41;;;;;;;4.60;3.20;;;19.90;91.10;;;;;;5074737;28;20575;-67
2021/08/10 07:24:08;;;;;;;4.57;3.07;;;20.00;90.90;;;;;;5074914;28;20494;-67
2021/08/10 07:26:37;;;;;;;4.50;2.90;;;20.10;91.00;;;;;;5074757;28;20558;-67
2021/08/10 07:29:04;;;;;;;4.40;3.03;;;20.20;90.60;;;;;;5074554;28;20481;-68
2021/08/10 07:31:31;;;;;;;3.90;2.83;;;20.40;90.10;;;;;;5074843;28;20539;-67
2021/08/10 07:33:58;;;;;;;4.30;2.90;;;20.50;89.50;;;;;;5074596;28;20525;-68
2021/08/10 07:36:25;;;;;;;6.10;2.37;;;20.70;89.80;;;;;;5074593;28;20527;-67
2021/08/10 07:38:52;;;;;;;4.53;3.00;;;20.80;89.20;;;;;;5074109;28;20978;-67
2021/08/10 07:41:19;;;;;;;7.00;3.23;;;20.90;89.60;;;;;;5074356;28;20868;-67
2021/08/10 07:43:47;;;;;;;3.67;2.57;;;21.10;89.60;;;;;;5074648;28;20844;-67
2021/08/10 07:46:14;;;;;;;6.53;3.30;;;21.20;87.30;;;;;;5074270;28;20526;-67
2021/08/10 07:48:41;;;;;;;7.20;2.67;;;21.30;87.00;;;;;;5073999;28;20543;-67
2021/08/10 07:51:08;;;;;;;3.50;2.33;;;21.40;85.30;;;;;;5074404;28;20474;-67
2021/08/10 07:53:40;;;;;;;5.60;2.90;;;21.50;83.10;;;;;;5074433;28;20560;-67
2021/08/10 07:56:07;;;;;;;7.33;3.10;;;21.70;85.10;;;;;;5074088;28;20450;-67
2021/08/10 07:58:34;;;;;;;7.43;3.07;;;21.80;84.20;;;;;;5073807;28;20938;-67
2021/08/10 08:01:04;;;;;;;4.17;3.20;;;22.00;83.30;;;;;;5074374;28;20562;-67
2021/08/10 08:03:31;;;;;;;4.77;2.83;;;22.10;81.30;;;;;;5074313;28;20446;-67
2021/08/10 08:05:58;;;;;;;4.80;3.17;;;22.20;82.30;;;;;;5074254;28;20530;-69
2021/08/10 08:08:27;;;;;;;5.37;2.90;;;22.40;80.00;;;;;;5073518;28;20475;-67
2021/08/10 08:10:54;;;;;;;6.03;2.90;;;22.50;81.80;;;;;;5073967;28;20448;-67
2021/08/10 08:13:21;;;;;;;4.97;2.87;;;22.60;79.60;;;;;;5073741;28;20866;-67
2021/08/10 08:15:49;;;;;;;3.30;2.60;;;22.80;80.80;;;;;;5073993;28;20483;-67
2021/08/10 08:18:18;;;;;;;4.20;2.67;;;22.90;80.70;;;;;;5073403;28;20447;-67
2021/08/10 08:20:47;;;;;;;5.37;2.83;;;23.10;81.20;;;;;;5073644;28;20436;-68
2021/08/10 08:23:14;;;;;;;8.50;3.20;;;23.30;80.00;;;;;;5074003;28;20937;-68
2021/08/10 08:25:41;;;;;;;3.47;2.60;;;23.50;79.60;;;;;;5073338;28;20472;-67
2021/08/10 08:28:09;;;;;;;5.00;3.30;;;23.70;79.30;;;;;;5073649;28;20526;-68
2021/08/10 08:30:38;;;;;;;5.70;3.23;;;23.80;76.00;;;;;;5073670;28;20937;-67
2021/08/10 08:33:06;;;;;;;5.10;3.43;;;23.90;76.90;;;;;;5073969;28;20894;-67
2021/08/10 08:35:35;;;;;;;7.60;3.07;;;24.00;76.30;;;;;;5073532;28;20849;-68
2021/08/10 08:38:02;;;;;;;4.70;3.47;;;24.10;75.60;;;;;;5072940;28;20524;-67
2021/08/10 08:40:30;;;;;;;5.40;2.73;;;24.20;75.20;;;;;;5073100;28;20463;-67
2021/08/10 08:42:57;;;;;;;4.50;3.27;;;24.40;74.70;;;;;;5073341;28;20525;-67
2021/08/10 08:45:25;;;;;;;3.80;2.77;;;24.50;74.30;;;;;;5073311;28;20611;-67
2021/08/10 08:47:53;;;;;;;4.70;3.13;;;24.70;75.80;;;;;;5072898;28;20535;-67
2021/08/10 08:50:26;;;;;;;3.77;2.57;;;24.80;74.60;;;;;;5073180;28;20484;-67
2021/08/10 08:52:55;;;;;;;5.47;3.03;;;24.90;74.50;;;;;;5073327;28;20446;-67
2021/08/10 08:55:23;;;;;;;6.20;3.70;;;25.00;72.40;;;;;;5073390;28;20451;-67
2021/08/10 08:57:50;;;;;;;4.10;2.90;;;25.10;72.60;;;;;;5072879;28;20480;-67
2021/08/10 09:00:18;;;;;;;5.97;4.47;;;25.20;67.40;;;;;;5073097;28;20612;-68
2021/08/10 09:02:46;;;;;;;3.80;2.43;;;25.40;68.10;;;;;;5073055;28;20574;-68
2021/08/10 09:05:13;;;;;;;4.23;2.73;;;25.50;70.30;;;;;;5073199;28;20534;-67
2021/08/10 09:07:41;;;;;;;3.60;2.23;;;25.60;69.90;;;;;;5072617;28;20835;-67
2021/08/10 09:10:13;;;;;;;4.03;2.87;;;25.80;70.30;;;;;;5072214;28;20795;-67
2021/08/10 09:12:45;;;;;;;4.43;2.77;;;25.90;67.10;;;;;;5072952;28;20960;-67
2021/08/10 09:15:33;;;;;;;3.80;2.60;;;26.10;68.30;;;;;;5072940;28;20510;-67
2021/08/10 09:18:10;;;;;;;4.37;3.07;;;26.20;68.00;;;;;;5070980;28;20906;-67
2021/08/10 09:20:40;;;;;;;4.83;3.40;;;26.30;68.10;;;;;;5072631;28;20436;-67
2021/08/10 09:23:07;;;;;;;4.30;2.73;;;26.50;66.50;;;;;;5072226;28;20570;-67
2021/08/10 09:25:38;;;;;;;3.87;2.67;;;26.60;63.30;;;;;;5072231;28;20487;-67
2021/08/10 09:28:07;;;;;;;4.83;2.67;;;26.80;64.60;;;;;;5071948;28;20950;-68
2021/08/10 09:30:36;;;;;;;5.83;2.60;;;27.00;63.30;;;;;;5072431;28;22263;-68
2021/08/10 09:33:08;;;;;;;7.73;2.70;;;27.30;62.80;;;;;;5072220;28;20459;-68
2021/08/10 09:35:37;;;;;;;8.30;3.10;;;27.50;61.10;;;;;;5072363;28;20530;-68
2021/08/10 09:38:07;;;;;;;6.63;3.50;;;27.60;60.90;;;;;;5071898;28;20479;-67
2021/08/10 09:40:37;;;;;;;4.20;2.53;;;27.60;59.60;;;;;;5072484;28;20487;-68
2021/08/10 09:43:41;;;;;;;4.43;2.63;;;27.60;57.80;;;;;;5072056;28;20526;-67
2021/08/10 09:46:14;;;;;;;5.60;2.67;;;27.60;58.70;;;;;;5072205;28;20432;-68
2021/08/10 09:48:43;;;;;;;4.00;2.50;;;27.70;57.80;;;;;;5072378;28;20466;-67
2021/08/10 09:51:12;;;;;;;3.90;2.40;;;27.60;56.30;;;;;;5071105;28;20450;-67
2021/08/10 09:53:40;;;;;;;3.80;3.00;;;27.60;53.90;;;;;;5072320;28;20495;-67
2021/08/10 09:56:09;;;;;;;4.67;2.50;;;27.60;56.00;;;;;;5072222;28;20444;-67
2021/08/10 09:58:55;;;;;;;5.70;2.87;;;27.70;56.80;;;;;;5071890;28;20519;-67
2021/08/10 10:01:34;;;;;;;3.30;2.50;;;27.70;55.30;;;;;;5071895;28;20944;-67
2021/08/10 10:04:22;;;;;;;3.73;2.47;;;27.80;55.20;;;;;;5071023;28;20446;-68
2021/08/10 10:06:54;;;;;;;5.27;3.27;;;27.90;54.50;;;;;;5071876;28;20446;-68
2021/08/10 10:09:22;;;;;;;4.60;2.70;;;27.90;54.20;;;;;;5071944;28;20541;-67
2021/08/10 10:11:52;;;;;;;6.13;2.57;;;28.00;54.90;;;;;;5071002;28;20486;-67
2021/08/10 10:14:20;;;;;;;3.93;2.70;;;28.20;55.40;;;;;;5071712;28;20528;-67
2021/08/10 10:16:49;;;;;;;6.50;2.30;;;28.40;54.00;;;;;;5070122;28;20535;-67
2021/08/10 10:19:17;;;;;;;5.00;2.20;;;28.50;54.60;;;;;;5068795;28;20918;-67
2021/08/10 10:21:47;;;;;;;5.23;2.67;;;28.80;53.80;;;;;;5074675;28;20535;-67
2021/08/10 10:24:15;;;;;;;3.83;2.60;;;29.10;53.90;;;;;;5075890;28;20482;-68
2021/08/10 10:26:44;;;;;;;4.53;2.80;;;29.40;51.90;;;;;;5070943;28;20876;-68
2021/08/10 10:29:15;;;;;;;3.57;3.10;;;29.70;52.00;;;;;;5074992;28;20523;-67
2021/08/10 10:31:43;;;;;;;5.40;3.10;;;30.00;52.00;;;;;;5075404;28;20479;-67
2021/08/10 10:34:13;;;;;;;5.20;3.63;;;30.40;52.10;;;;;;5066341;28;20523;-72
2021/08/10 10:36:43;;;;;;;4.13;3.20;;;30.70;51.20;;;;;;5068326;28;20474;-67
2021/08/10 10:39:12;;;;;;;6.20;3.40;;;30.90;50.50;;;;;;5074864;28;20485;-68
2021/08/10 10:41:40;;;;;;;5.57;2.93;;;31.00;47.90;;;;;;5075505;28;20877;-67
2021/08/10 10:44:09;;;;;;;3.90;2.80;;;31.00;47.60;;;;;;5075347;28;20481;-68
2021/08/10 10:46:39;;;;;;;6.30;2.90;;;31.00;46.40;;;;;;5075096;28;20443;-68
2021/08/10 10:49:08;;;;;;;4.80;2.87;;;31.10;47.30;;;;;;5074942;28;20527;-67
2021/08/10 10:51:38;;;;;;;3.70;2.77;;;31.30;47.50;;;;;;5075002;28;20876;-68
2021/08/10 10:54:28;;;;;;;5.33;2.60;;;31.60;46.60;;;;;;5075165;28;20451;-68
2021/08/10 10:56:57;;;;;;;6.90;3.10;;;31.90;43.60;;;;;;5074128;28;20432;-68
2021/08/10 10:59:35;;;;;;;3.30;2.60;;;32.00;41.60;;;;;;5075122;28;20443;-68
2021/08/10 11:02:25;;;;;;;6.40;2.57;;;32.00;41.80;;;;;;5075299;28;20485;-68
2021/08/10 11:05:23;;;;;;;4.53;2.70;;;31.90;42.30;;;;;;5073400;28;20773;-67
2021/08/10 11:07:52;;;;;;;3.87;2.70;;;31.90;43.00;;;;;;5072408;28;20651;-68
2021/08/10 11:10:41;;;;;;;7.93;2.80;;;31.80;42.40;;;;;;5075004;28;20790;-67
2021/08/10 11:13:44;;;;;;;3.40;2.60;;;31.90;43.10;;;;;;5074883;28;20439;-69
2021/08/10 11:16:11;;;;;;;3.80;2.70;;;31.80;43.40;;;;;;5068192;28;20504;-67
2021/08/10 11:18:39;;;;;;;5.00;3.20;;;31.90;45.40;;;;;;5074953;28;20442;-68
2021/08/10 11:21:25;;;;;;;4.97;2.97;;;32.00;43.80;;;;;;5074995;28;20550;-68
2021/08/10 11:23:52;;;;;;;3.93;2.73;;;32.20;44.30;;;;;;5072263;28;20519;-68
2021/08/10 11:26:40;;;;;;;4.80;3.17;;;32.30;43.50;;;;;;5074873;28;20501;-68
2021/08/10 11:29:09;;;;;;;4.63;2.90;;;32.30;44.20;;;;;;5074231;28;20523;-68
2021/08/10 11:31:50;;;;;;;4.87;2.80;;;32.40;43.10;;;;;;5074130;28;20534;-67
2021/08/10 11:34:40;;;;;;;3.87;3.10;;;32.40;44.00;;;;;;5074614;28;20792;-68
2021/08/10 11:37:27;;;;;;;5.57;2.90;;;32.40;45.60;;;;;;5074118;28;20835;-68
2021/08/10 11:40:10;;;;;;;4.83;3.20;;;32.60;43.80;;;;;;5072865;28;20501;-69
2021/08/10 11:42:38;;;;;;;4.93;2.67;;;32.60;45.40;;;;;;5074438;28;20533;-68
2021/08/10 11:45:06;;;;;;;4.40;2.80;;;32.70;44.40;;;;;;5074635;28;20527;-67
2021/08/10 11:47:33;;;;;;;3.60;2.83;;;32.70;44.00;;;;;;5074370;28;20480;-68
2021/08/10 11:50:02;;;;;;;6.60;4.53;;;32.60;44.10;;;;;;5074144;28;20526;-68
2021/08/10 11:52:47;;;;;;;4.10;2.80;;;32.50;43.20;;;;;;5074552;28;20818;-68
2021/08/10 11:55:15;;;;;;;3.90;2.70;;;32.40;42.90;;;;;;5073526;28;20469;-68
2021/08/10 11:58:00;;;;;;;4.17;2.40;;;32.20;41.40;;;;;;5074268;28;20443;-67
2021/08/10 12:00:28;;;;;;;4.47;2.93;;;31.80;40.10;;;;;;5072606;28;20440;-68
2021/08/10 12:02:56;;;;;;;4.93;3.93;;;31.70;43.80;;;;;;5074165;28;20570;-68
2021/08/10 12:05:24;;;;;;;5.43;3.57;;;31.80;43.80;;;;;;5074539;28;20530;-67
2021/08/10 12:07:54;;;;;;;3.90;2.97;;;31.90;44.80;;;;;;5073805;28;20440;-67
2021/08/10 12:10:29;;;;;;;4.63;3.17;;;32.00;46.70;;;;;;5074106;28;20447;-67
2021/08/10 12:12:56;;;;;;;4.80;3.50;;;32.10;45.00;;;;;;5072371;28;20443;-67
2021/08/10 12:15:43;;;;;;;4.47;3.33;;;32.10;45.40;;;;;;5074282;28;20508;-67
2021/08/10 12:18:11;;;;;;;5.33;3.37;;;31.90;44.00;;;;;;5073297;28;20446;-68
2021/08/10 12:20:39;;;;;;;3.90;2.80;;;31.80;44.30;;;;;;5073809;28;20472;-68
2021/08/10 12:23:08;;;;;;;4.40;3.00;;;31.60;45.00;;;;;;5073774;28;21073;-68
2021/08/10 12:25:35;;;;;;;5.23;3.30;;;31.70;45.40;;;;;;5073420;28;20523;-68
2021/08/10 12:28:07;;;;;;;5.30;3.00;;;31.70;44.10;;;;;;5072234;28;20476;-67
2021/08/10 12:30:34;;;;;;;3.90;2.70;;;31.80;43.50;;;;;;5073090;28;20498;-67
2021/08/10 12:33:20;;;;;;;3.90;3.27;;;31.80;41.30;;;;;;5073345;28;20515;-67
2021/08/10 12:36:08;;;;;;;3.87;3.10;;;31.80;41.40;;;;;;5073412;28;20531;-68
2021/08/10 12:38:36;;;;;;;5.90;3.33;;;31.80;43.10;;;;;;5071518;28;20614;-68
2021/08/10 12:41:04;;;;;;;3.83;2.97;;;31.80;41.20;;;;;;5073492;28;20534;-68
2021/08/10 12:43:31;;;;;;;6.27;4.03;;;31.60;39.10;;;;;;5072302;28;20515;-69
2021/08/10 12:45:58;;;;;;;5.70;3.37;;;31.50;41.70;;;;;;5073459;28;20530;-67
2021/08/10 12:48:31;;;;;;;10.47;3.37;;;31.50;44.20;;;;;;5073111;28;20437;-67
2021/08/10 12:51:02;;;;;;;3.50;2.93;;;31.30;42.00;;;;;;5073052;28;20530;-69
2021/08/10 12:53:32;;;;;;;6.70;4.10;;;31.20;42.80;;;;;;5073445;28;20439;-68
2021/08/10 12:56:00;;;;;;;4.00;2.90;;;31.30;43.00;;;;;;5073080;28;20488;-68
2021/08/10 12:58:28;;;;;;;5.17;3.13;;;31.40;43.10;;;;;;5072788;28;20526;-67
2021/08/10 13:01:03;;;;;;;4.80;3.17;;;31.40;42.40;;;;;;5073063;28;20850;-67